Time;durP1;ratioP1;P1;durP2;ratioP2;P2;SDS_P1;SDS_P2;PMS_P1;PMS_P2;Temp;Humidity;BMP_temperature;BMP_pressure;BME280_temperature;BME280_humidity;BME280_pressure;Samples;Min_cycle;Max_cycle;Signal;HPM_P1;HPM_P2
2023/02/02 10:01:35;;;;;;;3.63;3.28;;;15.50;59.00;;;;;;5103434;27;20314;-76
2023/02/02 10:04:22;;;;;;;2.90;2.70;;;16.50;56.00;;;;;;5085863;28;20200;-76
2023/02/02 10:06:51;;;;;;;2.65;2.45;;;17.70;53.90;;;;;;5087758;28;20212;-75
2023/02/02 10:09:34;;;;;;;5.65;2.72;;;18.50;53.10;;;;;;5094885;28;20186;-75
2023/02/02 10:12:30;;;;;;;2.55;2.35;;;19.00;50.10;;;;;;5078187;28;20712;-75
2023/02/02 10:15:16;;;;;;;2.95;2.67;;;19.30;51.70;;;;;;5085421;28;20671;-74
2023/02/02 10:17:51;;;;;;;2.42;2.33;;;19.60;49.60;;;;;;5077977;28;20740;-75
2023/02/02 10:20:38;;;;;;;0.80;0.80;;;19.50;49.20;;;;;;5073768;28;20209;-75
2023/02/02 10:23:27;;;;;;;1.50;1.40;;;19.10;47.30;;;;;;5082313;28;20218;-75
2023/02/02 10:26:19;;;;;;;0.82;0.82;;;18.70;48.70;;;;;;5082062;28;20565;-75
2023/02/02 10:29:13;;;;;;;0.90;0.85;;;17.80;47.00;;;;;;5065302;28;20200;-75
2023/02/02 10:31:38;;;;;;;0.65;0.65;;;17.50;49.50;;;;;;5090530;28;21041;-74
2023/02/02 10:34:40;;;;;;;2.17;0.70;;;17.90;50.90;;;;;;5086874;28;20178;-75
2023/02/02 10:37:14;;;;;;;3.70;0.70;;;18.20;47.50;;;;;;5013689;28;20278;-76
2023/02/02 10:39:55;;;;;;;0.63;0.63;;;18.10;48.20;;;;;;5017422;28;20227;-76
2023/02/02 10:42:30;;;;;;;1.00;1.00;;;18.10;48.10;;;;;;5001685;28;20863;-76
2023/02/02 10:45:00;;;;;;;0.80;0.80;;;17.70;47.30;;;;;;5021705;28;20271;-75
2023/02/02 10:47:32;;;;;;;0.90;0.90;;;16.60;49.10;;;;;;5032789;28;20211;-75
2023/02/02 10:50:12;;;;;;;0.63;0.63;;;15.70;49.40;;;;;;5025652;28;20188;-75
2023/02/02 10:52:55;;;;;;;0.85;0.43;;;14.60;50.90;;;;;;5023947;28;20191;-76
2023/02/02 10:55:44;;;;;;;0.60;0.60;;;14.00;51.50;;;;;;5028693;28;20200;-75
2023/02/02 10:58:10;;;;;;;0.63;0.63;;;13.60;52.50;;;;;;5027311;28;20186;-75
2023/02/02 11:00:47;;;;;;;1.83;0.80;;;14.00;53.70;;;;;;5029340;28;20228;-76
2023/02/02 11:03:15;;;;;;;1.40;0.88;;;14.30;52.60;;;;;;5021991;28;20180;-75
2023/02/02 11:08:29;;;;;;;0.40;0.40;;;15.00;50.90;;;;;;5024019;28;20245;-75
2023/02/02 11:10:57;;;;;;;1.13;0.70;;;15.20;51.60;;;;;;5015556;28;20272;-75
2023/02/02 11:13:30;;;;;;;0.60;0.60;;;15.30;49.80;;;;;;5058531;28;20194;-74
2023/02/02 11:16:14;;;;;;;0.73;0.73;;;15.60;49.60;;;;;;5064697;28;20282;-75
2023/02/02 11:18:42;;;;;;;1.08;0.68;;;15.90;49.50;;;;;;5062676;28;21081;-75
2023/02/02 11:21:28;;;;;;;0.57;0.57;;;16.40;49.10;;;;;;5067376;28;20207;-75
2023/02/02 11:24:15;;;;;;;0.50;0.50;;;16.80;48.20;;;;;;5072727;28;20209;-75
2023/02/02 11:26:54;;;;;;;0.95;0.70;;;17.10;48.10;;;;;;5069704;28;20183;-74
2023/02/02 11:29:29;;;;;;;0.88;0.88;;;17.20;47.90;;;;;;5069517;28;20243;-75
2023/02/02 11:31:55;;;;;;;0.65;0.65;;;17.20;48.20;;;;;;5065538;28;20182;-74
2023/02/02 11:34:23;;;;;;;0.73;0.73;;;16.90;48.10;;;;;;5069891;28;20178;-74
2023/02/02 11:37:01;;;;;;;0.60;0.60;;;16.60;48.10;;;;;;5064717;28;20238;-74
2023/02/02 11:39:27;;;;;;;2.28;0.70;;;16.30;47.90;;;;;;5066025;28;20202;-74
2023/02/02 11:42:04;;;;;;;0.68;0.60;;;15.90;48.70;;;;;;5070807;28;20900;-74
2023/02/02 11:44:31;;;;;;;0.80;0.75;;;15.70;49.60;;;;;;5067950;28;20173;-74
2023/02/02 11:46:58;;;;;;;1.02;0.82;;;15.70;49.30;;;;;;5073431;28;20182;-75
2023/02/02 11:49:24;;;;;;;0.57;0.57;;;15.60;49.40;;;;;;5066751;28;20270;-75
2023/02/02 11:52:03;;;;;;;1.10;0.60;;;15.20;49.70;;;;;;5067015;28;20179;-76
2023/02/02 11:54:34;;;;;;;0.60;0.60;;;15.40;50.10;;;;;;5066964;28;20260;-76
2023/02/02 11:57:04;;;;;;;2.83;0.60;;;15.20;49.70;;;;;;5073706;28;20265;-75
2023/02/02 11:59:39;;;;;;;0.63;0.63;;;15.30;50.00;;;;;;5065910;28;20214;-75
2023/02/02 12:02:20;;;;;;;0.60;0.60;;;15.30;49.90;;;;;;5068862;28;20623;-75
2023/02/02 12:04:51;;;;;;;0.40;0.40;;;14.70;50.60;;;;;;5058601;28;20240;-75
2023/02/02 12:07:29;;;;;;;1.35;0.80;;;14.50;51.80;;;;;;5068345;28;20220;-75
2023/02/02 12:10:25;;;;;;;1.27;0.40;;;14.60;51.30;;;;;;5064750;28;20556;-75
2023/02/02 12:13:04;;;;;;;0.50;0.50;;;14.90;50.80;;;;;;5062135;28;20187;-75
2023/02/02 12:16:20;;;;;;;0.70;0.70;;;15.00;50.70;;;;;;5067248;28;20204;-75
2023/02/02 12:19:13;;;;;;;0.65;0.65;;;14.90;51.00;;;;;;4972329;28;20197;-75
2023/02/02 12:21:45;;;;;;;0.77;0.77;;;14.70;51.20;;;;;;4985036;28;20202;-75
2023/02/02 12:24:32;;;;;;;0.77;0.70;;;14.10;51.80;;;;;;4978556;28;20838;-75
2023/02/02 12:27:12;;;;;;;0.70;0.70;;;13.10;53.40;;;;;;4977434;28;20637;-75
2023/02/02 12:29:46;;;;;;;0.82;0.82;;;12.40;55.20;;;;;;4982781;28;20221;-74
2023/02/02 12:32:40;;;;;;;1.85;0.80;;;12.10;55.00;;;;;;4983709;28;20607;-75
2023/02/02 12:35:31;;;;;;;0.43;0.43;;;11.80;55.40;;;;;;4983162;28;20725;-75
2023/02/02 12:38:17;;;;;;;0.63;0.60;;;11.50;55.10;;;;;;4981784;28;20352;-75
2023/02/02 12:41:25;;;;;;;0.40;0.40;;;11.30;55.10;;;;;;4932362;29;20223;-74
2023/02/02 12:44:02;;;;;;;0.38;0.38;;;11.00;55.50;;;;;;4882711;29;20219;-73
2023/02/02 12:46:47;;;;;;;0.30;0.30;;;10.80;55.60;;;;;;4874872;29;20357;-75
2023/02/02 12:49:34;;;;;;;0.60;0.60;;;10.70;55.80;;;;;;4901136;29;20708;-75
2023/02/02 12:52:27;;;;;;;0.70;0.70;;;10.60;56.70;;;;;;4935484;29;20202;-74
2023/02/02 12:55:17;;;;;;;0.50;0.50;;;10.50;56.80;;;;;;4933908;29;20294;-76
2023/02/02 12:57:49;;;;;;;0.38;0.38;;;10.30;57.00;;;;;;4930672;29;20285;-76
2023/02/02 13:00:58;;;;;;;0.63;0.40;;;10.20;57.40;;;;;;4926829;29;20236;-74
2023/02/02 13:03:45;;;;;;;2.83;0.40;;;10.00;57.50;;;;;;4910268;29;20196;-75
2023/02/02 13:06:19;;;;;;;0.45;0.45;;;9.90;57.90;;;;;;4913180;29;20288;-74
2023/02/02 13:09:11;;;;;;;0.60;0.60;;;9.90;57.90;;;;;;4908639;29;20785;-73
2023/02/02 13:11:48;;;;;;;0.50;0.50;;;9.80;57.40;;;;;;4903946;29;20280;-74
2023/02/02 13:14:18;;;;;;;0.47;0.47;;;9.80;57.70;;;;;;4919756;29;20238;-74
2023/02/02 13:16:48;;;;;;;0.43;0.43;;;9.80;57.60;;;;;;4909677;28;20196;-74
2023/02/02 13:19:33;;;;;;;0.95;0.50;;;9.80;58.00;;;;;;4963867;28;20185;-74
2023/02/02 13:22:01;;;;;;;0.60;0.60;;;9.90;58.50;;;;;;4999536;28;20291;-75
2023/02/02 13:24:30;;;;;;;1.10;0.40;;;9.90;58.10;;;;;;4991536;28;20181;-75
2023/02/02 13:26:59;;;;;;;0.50;0.50;;;10.00;58.50;;;;;;4996884;28;20255;-74
2023/02/02 13:29:45;;;;;;;0.50;0.50;;;9.90;58.70;;;;;;4998070;28;20383;-76
2023/02/02 13:32:31;;;;;;;0.60;0.60;;;10.00;59.00;;;;;;4988515;28;20933;-74
2023/02/02 13:35:32;;;;;;;0.45;0.45;;;10.00;58.50;;;;;;4999193;28;20191;-74
2023/02/02 13:38:23;;;;;;;0.50;0.50;;;10.10;58.50;;;;;;4993596;28;20659;-73
2023/02/02 13:40:50;;;;;;;0.52;0.52;;;10.10;57.90;;;;;;5052363;28;20235;-74
2023/02/02 13:43:44;;;;;;;0.52;0.52;;;10.30;57.80;;;;;;5059721;28;20179;-73
2023/02/02 13:46:37;;;;;;;0.40;0.40;;;10.50;57.20;;;;;;5063577;28;20214;-73
2023/02/02 13:49:19;;;;;;;0.50;0.38;;;10.40;57.10;;;;;;5077389;28;20183;-73
2023/02/02 13:51:52;;;;;;;0.30;0.30;;;10.50;56.70;;;;;;5050121;28;20230;-73
2023/02/02 13:54:39;;;;;;;0.30;0.30;;;10.30;57.30;;;;;;5051257;28;20192;-73
2023/02/02 13:57:05;;;;;;;0.50;0.50;;;10.20;57.60;;;;;;5064570;28;20621;-73
2023/02/02 13:59:59;;;;;;;0.60;0.60;;;10.30;57.90;;;;;;5068135;28;20301;-73
2023/02/02 14:02:33;;;;;;;0.85;0.70;;;10.60;58.30;;;;;;5000578;28;20225;-73
2023/02/02 14:05:04;;;;;;;0.47;0.47;;;11.00;58.00;;;;;;5001181;28;20679;-72
2023/02/02 14:07:42;;;;;;;0.63;0.35;;;11.20;57.80;;;;;;4989784;28;20958;-73
2023/02/02 14:10:25;;;;;;;0.52;0.52;;;11.30;58.20;;;;;;5002162;28;20676;-73
2023/02/02 14:12:52;;;;;;;0.20;0.20;;;11.40;59.00;;;;;;5004376;28;20262;-73
2023/02/02 14:15:18;;;;;;;2.45;0.35;;;11.40;59.50;;;;;;5003733;28;20192;-73
2023/02/02 14:17:43;;;;;;;0.30;0.30;;;10.90;61.30;;;;;;5006134;28;20189;-72
2023/02/02 14:20:43;;;;;;;0.30;0.30;;;10.60;62.60;;;;;;5003207;28;20258;-73
2023/02/02 14:23:45;;;;;;;0.40;0.40;;;10.50;63.00;;;;;;4999873;28;20193;-73
2023/02/02 14:26:18;;;;;;;0.20;0.20;;;10.50;62.80;;;;;;5013381;28;21019;-73
2023/02/02 14:28:50;;;;;;;0.35;0.35;;;10.10;63.20;;;;;;4983548;28;20185;-75
2023/02/02 14:31:30;;;;;;;0.40;0.40;;;9.90;64.00;;;;;;5010114;28;20669;-73
2023/02/02 14:34:34;;;;;;;0.25;0.25;;;9.50;64.70;;;;;;5009673;28;20192;-73
2023/02/02 14:37:27;;;;;;;0.73;0.50;;;9.40;65.50;;;;;;5001662;28;21155;-73
2023/02/02 14:40:22;;;;;;;1.38;0.93;;;9.30;66.20;;;;;;5033612;28;20215;-73
2023/02/02 14:46:07;;;;;;;1.60;1.50;;;8.90;67.40;;;;;;4985327;28;20220;-73
2023/02/02 14:48:34;;;;;;;0.77;0.77;;;8.60;69.30;;;;;;4988552;28;20205;-73
2023/02/02 14:51:01;;;;;;;0.28;0.28;;;8.00;75.00;;;;;;4985889;28;20185;-73
2023/02/02 14:53:29;;;;;;;0.88;0.88;;;7.30;79.30;;;;;;4985326;28;21053;-72
2023/02/02 14:55:57;;;;;;;1.17;0.88;;;6.90;81.80;;;;;;4985185;28;20177;-73
2023/02/02 14:58:28;;;;;;;1.30;0.85;;;6.60;83.30;;;;;;4985092;28;20186;-73
2023/02/02 15:00:57;;;;;;;1.02;1.02;;;6.40;85.40;;;;;;4984860;28;20252;-72
2023/02/02 15:03:36;;;;;;;1.20;0.73;;;6.10;86.80;;;;;;4984879;28;20221;-73
2023/02/02 15:06:25;;;;;;;0.37;0.37;;;5.90;85.80;;;;;;4993034;28;20288;-72
2023/02/02 15:09:18;;;;;;;0.50;0.50;;;5.50;86.40;;;;;;4932873;29;20278;-72
2023/02/02 15:12:01;;;;;;;2.80;0.63;;;5.20;87.70;;;;;;4933504;29;20543;-73
2023/02/02 15:14:54;;;;;;;0.47;0.40;;;5.00;88.80;;;;;;4935248;29;20207;-73
2023/02/02 15:17:26;;;;;;;0.23;0.23;;;4.70;89.10;;;;;;4937597;29;20195;-73
2023/02/02 15:20:10;;;;;;;0.73;0.50;;;4.50;89.50;;;;;;4958756;28;20663;-73
2023/02/02 15:23:06;;;;;;;0.50;0.50;;;4.30;90.20;;;;;;4985383;28;20369;-73
2023/02/02 15:25:43;;;;;;;0.50;0.33;;;4.20;90.60;;;;;;4978962;28;20262;-73
2023/02/02 15:28:30;;;;;;;0.10;0.10;;;4.00;91.20;;;;;;4991549;28;20239;-73
2023/02/02 15:31:19;;;;;;;0.20;0.20;;;3.90;91.70;;;;;;4974495;28;20273;-73
2023/02/02 15:33:49;;;;;;;0.37;0.37;;;3.90;92.10;;;;;;4987467;28;20598;-73
2023/02/02 15:36:24;;;;;;;0.50;0.50;;;3.80;92.70;;;;;;5001241;28;20189;-73
2023/02/02 15:39:00;;;;;;;1.03;0.30;;;3.80;92.70;;;;;;4998101;28;20276;-73
2023/02/02 15:41:31;;;;;;;0.43;0.43;;;3.70;93.20;;;;;;4989349;28;20966;-73
2023/02/02 15:43:58;;;;;;;0.30;0.30;;;3.60;93.40;;;;;;4985112;28;20189;-73
2023/02/02 15:46:27;;;;;;;0.37;0.37;;;3.50;93.90;;;;;;5041593;28;20205;-74
2023/02/02 15:49:17;;;;;;;0.20;0.20;;;3.30;94.70;;;;;;5068331;28;20175;-73
2023/02/02 15:51:49;;;;;;;0.20;0.20;;;3.20;94.60;;;;;;5069158;28;20248;-74
2023/02/02 15:54:21;;;;;;;0.10;0.10;;;3.20;94.90;;;;;;5069225;28;20248;-77
2023/02/02 15:56:47;;;;;;;0.13;0.13;;;3.10;95.30;;;;;;5055948;28;20186;-74
2023/02/02 15:59:25;;;;;;;0.10;0.10;;;3.00;95.50;;;;;;5061614;28;20695;-73
2023/02/02 16:02:11;;;;;;;0.10;0.10;;;3.00;94.90;;;;;;5060770;28;20668;-73
2023/02/02 16:04:41;;;;;;;0.20;0.20;;;3.00;95.00;;;;;;5068841;28;20190;-74
2023/02/02 16:07:14;;;;;;;0.83;0.20;;;3.00;95.10;;;;;;5064894;28;20179;-74
2023/02/02 16:09:40;;;;;;;0.30;0.30;;;3.00;95.10;;;;;;5063715;28;20183;-73
2023/02/02 16:12:22;;;;;;;0.20;0.20;;;3.00;95.30;;;;;;5063783;28;20194;-74
2023/02/02 16:14:52;;;;;;;0.10;0.10;;;3.00;95.40;;;;;;5064815;28;20194;-74
2023/02/02 16:17:22;;;;;;;2.13;0.53;;;3.00;94.80;;;;;;5064707;28;20192;-75
2023/02/02 16:20:02;;;;;;;0.40;0.40;;;3.10;95.20;;;;;;5065216;28;20214;-74
2023/02/02 16:22:29;;;;;;;0.77;0.20;;;3.10;94.80;;;;;;5063101;28;20193;-75
2023/02/02 16:24:59;;;;;;;0.10;0.10;;;3.20;94.60;;;;;;5052611;28;20264;-74
2023/02/02 16:27:28;;;;;;;0.10;0.10;;;3.20;94.10;;;;;;5070234;28;20273;-74
2023/02/02 16:29:58;;;;;;;0.20;0.20;;;3.20;94.10;;;;;;5068929;28;20274;-76
2023/02/02 16:32:25;;;;;;;0.20;0.20;;;3.30;94.00;;;;;;5062804;28;20214;-74
2023/02/02 16:34:51;;;;;;;0.40;0.40;;;3.30;93.80;;;;;;5060980;28;20266;-73
2023/02/02 16:37:26;;;;;;;0.10;0.10;;;3.30;93.90;;;;;;5057850;28;20274;-71
2023/02/02 16:39:56;;;;;;;0.10;0.10;;;3.30;93.60;;;;;;5045198;28;20218;-75
2023/02/02 16:42:27;;;;;;;0.60;0.37;;;3.30;93.70;;;;;;5066597;28;20256;-74
2023/02/02 16:44:54;;;;;;;0.10;0.10;;;3.30;93.90;;;;;;5066074;28;20201;-74
2023/02/02 16:47:26;;;;;;;0.13;0.13;;;3.30;94.00;;;;;;5064898;28;20171;-74
2023/02/02 16:50:24;;;;;;;0.20;0.20;;;3.30;93.90;;;;;;5062324;28;20187;-73
2023/02/02 16:53:03;;;;;;;0.27;0.27;;;3.30;93.90;;;;;;5068562;28;20178;-74
2023/02/02 16:55:31;;;;;;;1.47;0.20;;;3.30;93.90;;;;;;5043683;28;20944;-73
2023/02/02 16:57:58;;;;;;;0.30;0.30;;;3.30;94.10;;;;;;5061527;28;20175;-74
2023/02/02 17:00:27;;;;;;;0.30;0.30;;;3.40;94.10;;;;;;5063949;28;20275;-74
2023/02/02 17:02:57;;;;;;;0.10;0.10;;;3.40;93.70;;;;;;5063614;28;20759;-73
2023/02/02 17:05:27;;;;;;;0.30;0.30;;;3.40;93.60;;;;;;5063204;28;20194;-74
2023/02/02 17:08:04;;;;;;;0.20;0.20;;;3.50;93.40;;;;;;5052180;28;20178;-74
2023/02/02 17:10:34;;;;;;;0.27;0.27;;;3.50;93.00;;;;;;5044373;28;20171;-75
2023/02/02 17:13:02;;;;;;;0.20;0.20;;;3.50;93.00;;;;;;5062132;28;20241;-75
2023/02/02 17:15:34;;;;;;;0.60;0.17;;;3.50;93.00;;;;;;5063043;28;20183;-74
2023/02/02 17:18:01;;;;;;;0.50;0.37;;;3.60;92.40;;;;;;5064887;28;20229;-75
2023/02/02 17:20:27;;;;;;;0.80;0.63;;;3.50;92.30;;;;;;5057734;28;20203;-75
2023/02/02 17:23:03;;;;;;;0.40;0.40;;;3.50;92.10;;;;;;5063528;28;20205;-75
2023/02/02 17:25:35;;;;;;;0.20;0.20;;;3.40;92.20;;;;;;5062782;28;20201;-75
2023/02/02 17:28:02;;;;;;;0.23;0.23;;;3.40;92.00;;;;;;5062953;28;20578;-74
2023/02/02 17:30:29;;;;;;;0.23;0.23;;;3.30;91.90;;;;;;5081045;28;20210;-76
2023/02/02 17:32:55;;;;;;;0.20;0.20;;;3.30;92.00;;;;;;5058749;28;20565;-75
2023/02/02 17:35:25;;;;;;;0.30;0.30;;;3.20;91.90;;;;;;5066712;28;20446;-75
2023/02/02 17:37:51;;;;;;;0.20;0.20;;;3.20;91.70;;;;;;5064292;28;20183;-74
2023/02/02 17:40:19;;;;;;;0.37;0.37;;;3.20;91.70;;;;;;5066109;28;20234;-74
2023/02/02 17:42:48;;;;;;;0.87;0.50;;;3.20;91.80;;;;;;5063887;28;20187;-74
2023/02/02 17:45:21;;;;;;;0.20;0.20;;;3.10;92.20;;;;;;5063984;28;20190;-76
2023/02/02 17:47:48;;;;;;;0.40;0.40;;;3.10;92.10;;;;;;5049255;28;20266;-76
2023/02/02 17:50:15;;;;;;;0.30;0.30;;;3.10;92.30;;;;;;5070496;28;20666;-75
2023/02/02 17:52:41;;;;;;;0.40;0.40;;;3.10;92.10;;;;;;5068755;28;20186;-82
2023/02/02 17:55:15;;;;;;;0.40;0.30;;;3.10;90.90;;;;;;5060899;28;20178;-78
2023/02/02 17:57:40;;;;;;;0.30;0.30;;;3.10;90.90;;;;;;5072974;28;20217;-74
2023/02/02 18:00:07;;;;;;;1.20;0.60;;;3.10;90.70;;;;;;5052555;28;20260;-75
2023/02/02 18:02:33;;;;;;;0.30;0.30;;;3.10;90.00;;;;;;5069781;28;20267;-74
2023/02/02 18:05:00;;;;;;;0.37;0.37;;;3.10;89.60;;;;;;5070509;28;20183;-74
2023/02/02 18:07:26;;;;;;;0.37;0.37;;;3.10;89.80;;;;;;5083859;28;20537;-73
2023/02/02 18:09:52;;;;;;;0.20;0.20;;;3.20;89.20;;;;;;5072100;28;20190;-76
2023/02/02 18:12:18;;;;;;;0.33;0.33;;;3.20;88.90;;;;;;5075878;28;20316;-75
2023/02/02 18:14:44;;;;;;;0.30;0.30;;;3.20;88.80;;;;;;5072101;28;20190;-76
2023/02/02 18:17:10;;;;;;;0.30;0.30;;;3.20;88.40;;;;;;5074037;28;20598;-75
2023/02/02 18:19:37;;;;;;;0.50;0.50;;;3.20;88.70;;;;;;5059555;28;20263;-76
2023/02/02 18:22:05;;;;;;;0.13;0.13;;;3.30;88.40;;;;;;5077684;28;20575;-76
2023/02/02 18:24:31;;;;;;;0.17;0.17;;;3.20;88.30;;;;;;5050715;28;20201;-79
2023/02/02 18:26:59;;;;;;;0.23;0.23;;;3.30;88.40;;;;;;5082019;28;20179;-79
2023/02/02 18:29:24;;;;;;;0.37;0.37;;;3.30;88.30;;;;;;5071720;28;20605;-75
2023/02/02 18:31:50;;;;;;;0.20;0.20;;;3.40;88.10;;;;;;5068522;28;20195;-76
2023/02/02 18:34:16;;;;;;;0.20;0.20;;;3.40;88.10;;;;;;5068626;28;20183;-76
2023/02/02 18:36:41;;;;;;;0.30;0.30;;;3.40;87.70;;;;;;5068729;28;20206;-74
2023/02/02 18:39:08;;;;;;;0.60;0.60;;;3.40;87.40;;;;;;5069418;28;20898;-75
2023/02/02 18:41:34;;;;;;;0.47;0.47;;;3.40;87.30;;;;;;5067626;28;20292;-75
2023/02/02 18:44:00;;;;;;;0.60;0.60;;;3.40;87.20;;;;;;5065184;28;20175;-80
2023/02/02 18:46:26;;;;;;;0.47;0.47;;;3.40;87.40;;;;;;5067333;28;21540;-76
2023/02/02 18:48:51;;;;;;;0.60;0.60;;;3.40;87.50;;;;;;5066514;28;20269;-76
2023/02/02 18:51:18;;;;;;;0.60;0.60;;;3.40;87.50;;;;;;5065916;28;20656;-75
2023/02/02 18:53:46;;;;;;;0.47;0.47;;;3.50;87.60;;;;;;5061311;28;20588;-76
2023/02/02 18:56:13;;;;;;;0.40;0.40;;;3.50;87.30;;;;;;5070801;28;20971;-76
2023/02/02 18:58:39;;;;;;;1.80;0.80;;;3.50;87.40;;;;;;5081921;28;20179;-76
2023/02/02 19:01:09;;;;;;;0.80;0.80;;;3.50;87.40;;;;;;5061648;28;20230;-76
2023/02/02 19:03:35;;;;;;;0.43;0.43;;;3.50;87.30;;;;;;5065488;28;20194;-77
2023/02/02 19:08:47;;;;;;;0.50;0.50;;;3.50;87.20;;;;;;5073758;28;20181;-77
2023/02/02 19:11:25;;;;;;;0.40;0.40;;;3.50;87.00;;;;;;5060305;28;20187;-78
2023/02/02 19:13:51;;;;;;;1.80;0.60;;;3.50;86.80;;;;;;5065355;28;20175;-75
2023/02/02 19:16:32;;;;;;;0.40;0.40;;;3.60;86.90;;;;;;5061830;28;20194;-75
2023/02/02 19:19:25;;;;;;;0.47;0.47;;;3.60;86.80;;;;;;5063548;28;21029;-76
2023/02/02 19:21:58;;;;;;;0.33;0.33;;;3.70;86.40;;;;;;5055543;28;20770;-76
2023/02/02 19:24:36;;;;;;;0.30;0.30;;;3.70;86.10;;;;;;5063392;28;20183;-76
2023/02/02 19:27:04;;;;;;;0.23;0.23;;;3.70;85.60;;;;;;5078907;28;20189;-76
2023/02/02 19:29:34;;;;;;;0.63;0.43;;;3.80;85.30;;;;;;5045493;28;20688;-76
2023/02/02 19:32:08;;;;;;;0.30;0.30;;;3.70;84.50;;;;;;5065101;28;20572;-77
2023/02/02 19:34:34;;;;;;;0.20;0.20;;;3.70;83.90;;;;;;5057706;28;20188;-76
2023/02/02 19:37:37;;;;;;;0.30;0.30;;;3.60;83.90;;;;;;5076911;28;20171;-76
2023/02/02 19:40:06;;;;;;;0.20;0.20;;;3.60;84.00;;;;;;5012986;28;20227;-76
2023/02/02 19:42:32;;;;;;;0.50;0.50;;;3.50;83.60;;;;;;4986216;28;20945;-76
2023/02/02 19:44:57;;;;;;;0.40;0.40;;;3.40;83.80;;;;;;5014617;28;20828;-77
2023/02/02 19:47:30;;;;;;;0.30;0.30;;;3.40;84.10;;;;;;5002792;28;20207;-76
2023/02/02 19:49:56;;;;;;;0.20;0.20;;;3.40;83.90;;;;;;5003435;28;20200;-76
2023/02/02 19:52:24;;;;;;;0.40;0.40;;;3.40;84.10;;;;;;5001783;28;20761;-76
2023/02/02 19:54:51;;;;;;;0.43;0.43;;;3.40;84.10;;;;;;5018983;28;20181;-76
2023/02/02 19:57:35;;;;;;;0.30;0.30;;;3.30;84.20;;;;;;5011058;28;20189;-76
2023/02/02 20:00:19;;;;;;;0.43;0.43;;;3.40;84.20;;;;;;5015887;28;20212;-75
2023/02/02 20:03:06;;;;;;;0.30;0.30;;;3.40;83.90;;;;;;5010069;28;20197;-77
2023/02/02 20:05:36;;;;;;;0.37;0.37;;;3.40;83.90;;;;;;5009066;28;20694;-78
2023/02/02 20:08:23;;;;;;;0.40;0.40;;;3.40;83.70;;;;;;5004951;28;20188;-77
2023/02/02 20:10:52;;;;;;;0.23;0.23;;;3.40;83.80;;;;;;5005650;28;20226;-76
2023/02/02 20:13:20;;;;;;;0.30;0.30;;;3.50;83.30;;;;;;5008698;28;20193;-76
2023/02/02 20:15:47;;;;;;;3.30;0.30;;;3.40;83.50;;;;;;5040347;28;20186;-76
2023/02/02 20:18:26;;;;;;;0.30;0.27;;;3.40;83.50;;;;;;5065507;28;20214;-76
2023/02/02 20:20:54;;;;;;;0.40;0.40;;;3.40;83.20;;;;;;5066689;28;20271;-76
2023/02/02 20:23:38;;;;;;;0.93;0.43;;;3.40;83.30;;;;;;5062201;28;20198;-76
2023/02/02 20:26:27;;;;;;;0.30;0.30;;;3.40;83.20;;;;;;5061890;28;20183;-77
2023/02/02 20:28:58;;;;;;;0.20;0.20;;;3.40;83.20;;;;;;5064843;28;20225;-76
2023/02/02 20:31:36;;;;;;;0.27;0.27;;;3.40;83.00;;;;;;5078513;28;20191;-77
2023/02/02 20:34:23;;;;;;;0.50;0.50;;;3.40;83.30;;;;;;5065817;28;20186;-75
2023/02/02 20:36:50;;;;;;;1.40;0.80;;;3.40;83.50;;;;;;5060849;28;20187;-77
2023/02/02 20:39:33;;;;;;;0.63;0.47;;;3.50;83.30;;;;;;5065808;28;20175;-77
2023/02/02 20:42:00;;;;;;;0.77;0.77;;;3.50;83.40;;;;;;5062670;28;20175;-76
2023/02/02 20:44:27;;;;;;;1.53;0.90;;;3.50;83.40;;;;;;5065167;28;20589;-76
2023/02/02 20:46:54;;;;;;;0.70;0.70;;;3.50;83.40;;;;;;5073207;28;20174;-76
2023/02/02 20:49:24;;;;;;;0.60;0.60;;;3.50;83.20;;;;;;5069451;28;20190;-77
2023/02/02 20:52:00;;;;;;;1.07;0.40;;;3.50;83.00;;;;;;5051867;28;20193;-76
2023/02/02 20:54:29;;;;;;;0.47;0.47;;;3.50;83.20;;;;;;5086878;28;20186;-76
2023/02/02 20:56:55;;;;;;;0.27;0.27;;;3.50;83.30;;;;;;5069920;28;20634;-77
2023/02/02 20:59:21;;;;;;;0.47;0.47;;;3.50;83.20;;;;;;5078277;28;20194;-76
2023/02/02 21:01:48;;;;;;;0.70;0.70;;;3.50;83.30;;;;;;5070081;28;21098;-76
2023/02/02 21:04:15;;;;;;;0.63;0.63;;;3.50;83.40;;;;;;5046725;28;20197;-82
2023/02/02 21:06:40;;;;;;;0.37;0.30;;;3.50;83.20;;;;;;5064333;28;20215;-77
2023/02/02 21:09:08;;;;;;;0.47;0.47;;;3.50;83.00;;;;;;5045945;28;20643;-78
2023/02/02 21:11:34;;;;;;;0.30;0.30;;;3.40;83.40;;;;;;5065509;28;20709;-77
2023/02/02 21:14:00;;;;;;;0.33;0.33;;;3.40;83.40;;;;;;5059167;28;20183;-78
2023/02/02 21:16:25;;;;;;;0.60;0.60;;;3.40;83.40;;;;;;5066226;28;20225;-78
2023/02/02 21:18:51;;;;;;;0.50;0.50;;;3.40;83.50;;;;;;5066892;28;20265;-77
2023/02/02 21:21:19;;;;;;;0.30;0.30;;;3.30;83.60;;;;;;5072713;28;20211;-78
2023/02/02 21:23:46;;;;;;;0.63;0.63;;;3.30;83.70;;;;;;5069480;28;20274;-78
2023/02/02 21:26:17;;;;;;;0.37;0.37;;;3.30;83.90;;;;;;5051140;28;20179;-77
2023/02/02 21:28:43;;;;;;;0.70;0.70;;;3.30;84.50;;;;;;5064193;28;20222;-78
2023/02/02 21:31:12;;;;;;;0.87;0.67;;;3.30;84.50;;;;;;5068060;28;20292;-77
2023/02/02 21:33:40;;;;;;;0.40;0.33;;;3.30;84.40;;;;;;5056939;28;20274;-78
2023/02/02 21:36:33;;;;;;;0.77;0.70;;;3.30;84.40;;;;;;5065476;28;20255;-78
2023/02/02 21:39:06;;;;;;;0.67;0.67;;;3.30;84.20;;;;;;4991547;28;20636;-78
2023/02/02 21:41:33;;;;;;;0.77;0.77;;;3.30;84.30;;;;;;4998704;28;20231;-77
2023/02/02 21:43:58;;;;;;;0.57;0.57;;;3.30;84.30;;;;;;5000214;28;20589;-77
2023/02/02 21:46:34;;;;;;;0.70;0.70;;;3.30;84.30;;;;;;4991144;28;20200;-76
2023/02/02 21:49:00;;;;;;;1.00;0.70;;;3.30;84.30;;;;;;4988043;28;20251;-76
2023/02/02 21:51:34;;;;;;;1.00;0.87;;;3.20;84.10;;;;;;5000476;28;20280;-76
2023/02/02 21:54:22;;;;;;;0.90;0.90;;;3.20;84.30;;;;;;5000724;28;20177;-76
2023/02/02 21:56:48;;;;;;;1.10;1.10;;;3.20;84.10;;;;;;4981474;28;20743;-76
2023/02/02 21:59:19;;;;;;;1.13;1.03;;;3.30;83.80;;;;;;4990496;28;20231;-76
2023/02/02 22:01:47;;;;;;;2.73;0.73;;;3.20;84.00;;;;;;5000950;28;20200;-77
2023/02/02 22:04:15;;;;;;;0.90;0.90;;;3.30;84.00;;;;;;5003372;28;20276;-76
2023/02/02 22:06:45;;;;;;;1.10;1.00;;;3.30;83.90;;;;;;5000702;28;20185;-76
2023/02/02 22:09:14;;;;;;;0.87;0.87;;;3.30;83.60;;;;;;4997186;28;20231;-76
2023/02/02 22:11:58;;;;;;;0.70;0.70;;;3.30;83.60;;;;;;5002350;28;20652;-77
2023/02/02 22:14:38;;;;;;;0.93;0.93;;;3.40;83.40;;;;;;5010889;28;20196;-75
2023/02/02 22:17:27;;;;;;;0.70;0.70;;;3.40;83.20;;;;;;5061925;28;20197;-77
2023/02/02 22:19:58;;;;;;;0.57;0.57;;;3.40;83.40;;;;;;4981997;28;20641;-77
2023/02/02 22:22:35;;;;;;;1.70;1.03;;;3.40;83.80;;;;;;4983216;28;20222;-77
2023/02/02 22:25:15;;;;;;;1.10;1.10;;;3.40;83.90;;;;;;4984634;28;20422;-77
2023/02/02 22:27:52;;;;;;;1.13;1.13;;;3.40;83.90;;;;;;4990568;28;20276;-77
2023/02/02 22:30:21;;;;;;;0.80;0.80;;;3.50;83.70;;;;;;4980772;28;20784;-77
2023/02/02 22:32:46;;;;;;;1.27;0.90;;;3.50;83.60;;;;;;4993004;28;20240;-75
2023/02/02 22:35:12;;;;;;;0.77;0.77;;;3.50;83.40;;;;;;4985318;28;20194;-75
2023/02/02 22:37:38;;;;;;;0.77;0.77;;;3.60;83.00;;;;;;4982069;28;20190;-76
2023/02/02 22:40:04;;;;;;;2.63;1.50;;;3.60;82.90;;;;;;4980722;28;20754;-76
2023/02/02 22:42:29;;;;;;;0.60;0.60;;;3.60;83.20;;;;;;4983420;28;20186;-76
2023/02/02 22:44:55;;;;;;;1.10;1.03;;;3.70;82.90;;;;;;5000696;28;20217;-75
2023/02/02 22:47:21;;;;;;;0.87;0.87;;;3.70;82.80;;;;;;4987729;28;20236;-76
2023/02/02 22:49:46;;;;;;;0.60;0.60;;;3.70;82.80;;;;;;4996553;28;20319;-77
2023/02/02 22:52:12;;;;;;;0.43;0.43;;;3.70;83.00;;;;;;4992765;28;20291;-77
2023/02/02 22:54:37;;;;;;;0.77;0.50;;;3.70;83.00;;;;;;4976790;28;20182;-76
2023/02/02 22:57:03;;;;;;;0.67;0.67;;;3.70;83.00;;;;;;5035218;28;20587;-78
2023/02/02 22:59:29;;;;;;;1.67;0.57;;;3.70;83.00;;;;;;5064446;28;20675;-78
2023/02/02 23:01:54;;;;;;;0.60;0.60;;;3.70;82.90;;;;;;5072170;28;20194;-78
2023/02/02 23:04:20;;;;;;;0.43;0.43;;;3.70;82.70;;;;;;5067268;28;20179;-78
2023/02/02 23:06:45;;;;;;;0.70;0.70;;;3.80;82.70;;;;;;5062282;28;20182;-78
2023/02/02 23:09:11;;;;;;;0.63;0.63;;;3.80;82.20;;;;;;5077025;28;20940;-79
2023/02/02 23:11:37;;;;;;;0.90;0.63;;;3.80;82.10;;;;;;5065483;28;20574;-77
2023/02/02 23:14:03;;;;;;;0.73;0.73;;;3.80;81.90;;;;;;5070948;28;20683;-77
2023/02/02 23:16:28;;;;;;;0.70;0.70;;;3.80;81.80;;;;;;5064603;28;20202;-77
2023/02/02 23:18:54;;;;;;;0.60;0.60;;;3.80;81.40;;;;;;5065689;28;20911;-76
2023/02/02 23:21:20;;;;;;;1.03;0.70;;;3.80;81.40;;;;;;5068140;28;20218;-76
2023/02/02 23:23:45;;;;;;;0.80;0.80;;;3.70;81.70;;;;;;5052466;28;20986;-76
2023/02/02 23:26:11;;;;;;;0.90;0.90;;;3.60;81.50;;;;;;5070568;28;20186;-76
2023/02/02 23:28:37;;;;;;;1.23;1.10;;;3.40;81.90;;;;;;5070640;28;20179;-76
2023/02/02 23:31:02;;;;;;;0.50;0.50;;;3.40;82.10;;;;;;5069155;28;20248;-77
2023/02/02 23:33:28;;;;;;;1.00;0.70;;;3.40;81.70;;;;;;5077256;28;20179;-76
2023/02/02 23:35:54;;;;;;;0.67;0.67;;;3.40;81.90;;;;;;5065415;28;20274;-78
2023/02/02 23:38:19;;;;;;;0.30;0.30;;;3.50;81.70;;;;;;5066339;28;20197;-77